sensor_id;sensor_type;location;lat;lon;timestamp;temperature;humidity
3017;DHT22;1518;52.408;13.060;2022-08-01T00:00:22;20.90;99.90
3017;DHT22;1518;52.408;13.060;2022-08-01T00:03:10;20.90;99.90
3017;DHT22;1518;52.408;13.060;2022-08-01T00:05:58;20.90;99.90
3017;DHT22;1518;52.408;13.060;2022-08-01T00:08:46;20.90;99.90
3017;DHT22;1518;52.408;13.060;2022-08-01T00:11:34;20.90;99.90
3017;DHT22;1518;52.408;13.060;2022-08-01T00:14:23;20.90;99.90
3017;DHT22;1518;52.408;13.060;2022-08-01T00:17:18;20.90;99.90
3017;DHT22;1518;52.408;13.060;2022-08-01T00:20:09;20.80;99.90
3017;DHT22;1518;52.408;13.060;2022-08-01T00:22:57;20.80;99.90
3017;DHT22;1518;52.408;13.060;2022-08-01T00:25:45;20.80;99.90
3017;DHT22;1518;52.408;13.060;2022-08-01T00:28:33;20.70;99.90
3017;DHT22;1518;52.408;13.060;2022-08-01T00:31:23;20.60;99.90
3017;DHT22;1518;52.408;13.060;2022-08-01T00:34:11;20.60;99.90
3017;DHT22;1518;52.408;13.060;2022-08-01T00:36:59;20.50;99.90
3017;DHT22;1518;52.408;13.060;2022-08-01T00:39:47;20.50;99.90
3017;DHT22;1518;52.408;13.060;2022-08-01T00:42:35;20.40;99.90
3017;DHT22;1518;52.408;13.060;2022-08-01T00:45:29;20.40;99.90
3017;DHT22;1518;52.408;13.060;2022-08-01T00:48:18;20.40;99.90
3017;DHT22;1518;52.408;13.060;2022-08-01T00:51:07;20.40;99.90
3017;DHT22;1518;52.408;13.060;2022-08-01T00:53:55;20.50;99.90
3017;DHT22;1518;52.408;13.060;2022-08-01T00:56:44;20.50;99.90
3017;DHT22;1518;52.408;13.060;2022-08-01T00:59:33;20.50;99.90
3017;DHT22;1518;52.408;13.060;2022-08-01T01:02:22;20.50;99.90
3017;DHT22;1518;52.408;13.060;2022-08-01T01:05:11;21.30;99.90
3017;DHT22;1518;52.408;13.060;2022-08-01T01:08:02;20.40;99.90
3017;DHT22;1518;52.408;13.060;2022-08-01T01:10:56;20.40;99.90
3017;DHT22;1518;52.408;13.060;2022-08-01T01:13:50;20.20;99.90
3017;DHT22;1518;52.408;13.060;2022-08-01T01:16:41;20.10;99.90
3017;DHT22;1518;52.408;13.060;2022-08-01T01:19:30;20.10;99.90
3017;DHT22;1518;52.408;13.060;2022-08-01T01:22:27;20.00;99.90
3017;DHT22;1518;52.408;13.060;2022-08-01T01:25:51;19.90;99.90
3017;DHT22;1518;52.408;13.060;2022-08-01T01:28:57;19.80;99.90
3017;DHT22;1518;52.408;13.060;2022-08-01T01:31:51;19.80;99.90
3017;DHT22;1518;52.408;13.060;2022-08-01T01:34:44;19.80;99.90
3017;DHT22;1518;52.408;13.060;2022-08-01T01:37:34;19.90;99.90
3017;DHT22;1518;52.408;13.060;2022-08-01T01:40:24;19.70;99.90
3017;DHT22;1518;52.408;13.060;2022-08-01T01:43:15;19.70;99.90
3017;DHT22;1518;52.408;13.060;2022-08-01T01:46:05;19.70;99.90
3017;DHT22;1518;52.408;13.060;2022-08-01T01:48:55;19.70;99.90
3017;DHT22;1518;52.408;13.060;2022-08-01T01:51:46;19.60;99.90
3017;DHT22;1518;52.408;13.060;2022-08-01T01:54:49;19.50;99.90
3017;DHT22;1518;52.408;13.060;2022-08-01T01:57:40;19.50;99.90
3017;DHT22;1518;52.408;13.060;2022-08-01T02:00:29;19.40;99.90
3017;DHT22;1518;52.408;13.060;2022-08-01T02:03:20;19.40;99.90
3017;DHT22;1518;52.408;13.060;2022-08-01T02:06:12;19.40;99.90
3017;DHT22;1518;52.408;13.060;2022-08-01T02:09:01;19.40;99.90
3017;DHT22;1518;52.408;13.060;2022-08-01T02:11:50;19.30;99.90
3017;DHT22;1518;52.408;13.060;2022-08-01T02:14:55;19.50;99.90
3017;DHT22;1518;52.408;13.060;2022-08-01T02:17:46;19.40;99.90
3017;DHT22;1518;52.408;13.060;2022-08-01T02:20:38;19.50;99.90
3017;DHT22;1518;52.408;13.060;2022-08-01T02:23:29;19.60;99.90
3017;DHT22;1518;52.408;13.060;2022-08-01T02:26:19;19.60;99.90
3017;DHT22;1518;52.408;13.060;2022-08-01T02:29:13;19.80;99.90
3017;DHT22;1518;52.408;13.060;2022-08-01T02:32:04;19.90;99.90
3017;DHT22;1518;52.408;13.060;2022-08-01T02:34:57;19.80;99.90
3017;DHT22;1518;52.408;13.060;2022-08-01T02:37:48;19.90;99.90
3017;DHT22;1518;52.408;13.060;2022-08-01T02:40:40;20.00;99.90
3017;DHT22;1518;52.408;13.060;2022-08-01T02:43:30;19.80;99.90
3017;DHT22;1518;52.408;13.060;2022-08-01T02:46:24;20.00;99.90
3017;DHT22;1518;52.408;13.060;2022-08-01T02:49:14;19.90;99.90
3017;DHT22;1518;52.408;13.060;2022-08-01T02:52:06;19.90;99.90
3017;DHT22;1518;52.408;13.060;2022-08-01T02:54:57;19.90;99.90
3017;DHT22;1518;52.408;13.060;2022-08-01T02:57:47;19.80;99.90
3017;DHT22;1518;52.408;13.060;2022-08-01T03:00:47;19.90;99.90
3017;DHT22;1518;52.408;13.060;2022-08-01T03:03:36;19.90;99.90
3017;DHT22;1518;52.408;13.060;2022-08-01T03:06:24;19.90;99.90
3017;DHT22;1518;52.408;13.060;2022-08-01T03:09:14;19.80;99.90
3017;DHT22;1518;52.408;13.060;2022-08-01T03:12:12;19.70;99.90
3017;DHT22;1518;52.408;13.060;2022-08-01T03:15:02;19.60;99.90
3017;DHT22;1518;52.408;13.060;2022-08-01T03:17:52;19.50;99.90
3017;DHT22;1518;52.408;13.060;2022-08-01T03:20:43;19.50;99.90
3017;DHT22;1518;52.408;13.060;2022-08-01T03:23:32;19.60;99.90
3017;DHT22;1518;52.408;13.060;2022-08-01T03:26:26;19.60;99.90
3017;DHT22;1518;52.408;13.060;2022-08-01T03:29:20;19.70;99.90
3017;DHT22;1518;52.408;13.060;2022-08-01T03:32:09;19.70;99.90
3017;DHT22;1518;52.408;13.060;2022-08-01T03:34:59;19.80;99.90
3017;DHT22;1518;52.408;13.060;2022-08-01T03:37:50;20.00;99.90
3017;DHT22;1518;52.408;13.060;2022-08-01T03:41:09;20.00;99.90
3017;DHT22;1518;52.408;13.060;2022-08-01T03:44:01;19.90;99.90
3017;DHT22;1518;52.408;13.060;2022-08-01T03:46:56;19.90;99.90
3017;DHT22;1518;52.408;13.060;2022-08-01T03:49:46;20.10;99.90
3017;DHT22;1518;52.408;13.060;2022-08-01T03:52:37;20.00;99.90
3017;DHT22;1518;52.408;13.060;2022-08-01T03:55:26;20.00;99.90
3017;DHT22;1518;52.408;13.060;2022-08-01T03:58:15;19.90;99.90
3017;DHT22;1518;52.408;13.060;2022-08-01T04:01:04;20.00;99.90
3017;DHT22;1518;52.408;13.060;2022-08-01T04:04:02;20.00;99.90
3017;DHT22;1518;52.408;13.060;2022-08-01T04:06:52;19.90;99.90
3017;DHT22;1518;52.408;13.060;2022-08-01T04:09:41;19.80;99.90
3017;DHT22;1518;52.408;13.060;2022-08-01T04:12:29;19.80;99.90
3017;DHT22;1518;52.408;13.060;2022-08-01T04:15:18;19.70;99.90
3017;DHT22;1518;52.408;13.060;2022-08-01T04:18:07;19.70;99.90
3017;DHT22;1518;52.408;13.060;2022-08-01T04:20:56;19.80;99.90
3017;DHT22;1518;52.408;13.060;2022-08-01T04:23:46;19.70;99.90
3017;DHT22;1518;52.408;13.060;2022-08-01T04:26:40;19.80;99.90
3017;DHT22;1518;52.408;13.060;2022-08-01T04:29:30;19.80;99.90
3017;DHT22;1518;52.408;13.060;2022-08-01T04:32:20;19.80;99.90
3017;DHT22;1518;52.408;13.060;2022-08-01T04:35:11;19.80;99.90
3017;DHT22;1518;52.408;13.060;2022-08-01T04:38:25;19.80;99.90
3017;DHT22;1518;52.408;13.060;2022-08-01T04:41:15;20.00;99.90
3017;DHT22;1518;52.408;13.060;2022-08-01T04:44:04;19.90;99.90
3017;DHT22;1518;52.408;13.060;2022-08-01T04:46:54;19.80;99.90
3017;DHT22;1518;52.408;13.060;2022-08-01T04:49:44;19.90;99.90
3017;DHT22;1518;52.408;13.060;2022-08-01T04:52:36;20.10;99.90
3017;DHT22;1518;52.408;13.060;2022-08-01T04:55:27;20.00;99.90
3017;DHT22;1518;52.408;13.060;2022-08-01T04:58:16;20.10;99.90
3017;DHT22;1518;52.408;13.060;2022-08-01T05:01:05;20.20;99.90
3017;DHT22;1518;52.408;13.060;2022-08-01T05:03:53;20.20;99.90
3017;DHT22;1518;52.408;13.060;2022-08-01T05:06:41;20.20;99.90
3017;DHT22;1518;52.408;13.060;2022-08-01T05:09:29;20.40;99.90
3017;DHT22;1518;52.408;13.060;2022-08-01T05:12:19;20.40;99.90
3017;DHT22;1518;52.408;13.060;2022-08-01T05:15:08;20.60;99.90
3017;DHT22;1518;52.408;13.060;2022-08-01T05:18:01;20.60;99.90
3017;DHT22;1518;52.408;13.060;2022-08-01T05:20:52;20.50;99.90
3017;DHT22;1518;52.408;13.060;2022-08-01T05:23:41;20.60;99.90
3017;DHT22;1518;52.408;13.060;2022-08-01T05:26:29;20.70;99.90
3017;DHT22;1518;52.408;13.060;2022-08-01T05:29:19;20.70;99.90
3017;DHT22;1518;52.408;13.060;2022-08-01T05:32:07;20.70;99.90
3017;DHT22;1518;52.408;13.060;2022-08-01T05:34:56;20.70;99.90
3017;DHT22;1518;52.408;13.060;2022-08-01T05:37:44;20.60;99.90
3017;DHT22;1518;52.408;13.060;2022-08-01T05:40:32;20.50;99.90
3017;DHT22;1518;52.408;13.060;2022-08-01T05:43:20;20.40;99.90
3017;DHT22;1518;52.408;13.060;2022-08-01T05:46:15;20.50;99.90
3017;DHT22;1518;52.408;13.060;2022-08-01T05:49:04;20.50;99.90
3017;DHT22;1518;52.408;13.060;2022-08-01T05:51:52;20.90;99.90
3017;DHT22;1518;52.408;13.060;2022-08-01T05:54:40;20.90;99.90
3017;DHT22;1518;52.408;13.060;2022-08-01T05:57:29;21.00;99.90
3017;DHT22;1518;52.408;13.060;2022-08-01T06:00:17;21.00;99.90
3017;DHT22;1518;52.408;13.060;2022-08-01T06:03:06;20.70;99.90
3017;DHT22;1518;52.408;13.060;2022-08-01T06:05:54;20.30;99.90
3017;DHT22;1518;52.408;13.060;2022-08-01T06:08:42;20.20;99.90
3017;DHT22;1518;52.408;13.060;2022-08-01T06:11:30;20.10;99.90
3017;DHT22;1518;52.408;13.060;2022-08-01T06:14:18;20.20;99.90
3017;DHT22;1518;52.408;13.060;2022-08-01T06:17:07;20.40;99.90
3017;DHT22;1518;52.408;13.060;2022-08-01T06:19:56;20.40;99.90
3017;DHT22;1518;52.408;13.060;2022-08-01T06:22:44;20.40;99.90
3017;DHT22;1518;52.408;13.060;2022-08-01T06:25:38;20.40;99.90
3017;DHT22;1518;52.408;13.060;2022-08-01T06:28:26;20.40;99.90
3017;DHT22;1518;52.408;13.060;2022-08-01T06:31:14;20.30;99.90
3017;DHT22;1518;52.408;13.060;2022-08-01T06:34:02;20.30;99.90
3017;DHT22;1518;52.408;13.060;2022-08-01T06:36:52;20.30;99.90
3017;DHT22;1518;52.408;13.060;2022-08-01T06:39:40;20.30;99.90
3017;DHT22;1518;52.408;13.060;2022-08-01T06:42:28;20.40;99.90
3017;DHT22;1518;52.408;13.060;2022-08-01T06:45:18;20.40;99.90
3017;DHT22;1518;52.408;13.060;2022-08-01T06:48:09;20.60;99.90
3017;DHT22;1518;52.408;13.060;2022-08-01T06:50:57;21.00;99.90
3017;DHT22;1518;52.408;13.060;2022-08-01T06:53:56;21.00;99.90
3017;DHT22;1518;52.408;13.060;2022-08-01T06:56:44;21.00;99.90
3017;DHT22;1518;52.408;13.060;2022-08-01T06:59:32;21.10;99.90
3017;DHT22;1518;52.408;13.060;2022-08-01T07:02:21;21.10;99.90
3017;DHT22;1518;52.408;13.060;2022-08-01T07:05:09;21.10;99.90
3017;DHT22;1518;52.408;13.060;2022-08-01T07:07:57;21.10;99.90
3017;DHT22;1518;52.408;13.060;2022-08-01T07:10:47;21.50;99.90
3017;DHT22;1518;52.408;13.060;2022-08-01T07:13:35;21.80;99.90
3017;DHT22;1518;52.408;13.060;2022-08-01T07:16:30;21.80;99.90
3017;DHT22;1518;52.408;13.060;2022-08-01T07:19:18;21.90;99.90
3017;DHT22;1518;52.408;13.060;2022-08-01T07:22:06;21.80;99.90
3017;DHT22;1518;52.408;13.060;2022-08-01T07:24:56;21.90;99.90
3017;DHT22;1518;52.408;13.060;2022-08-01T07:27:46;21.80;99.90
3017;DHT22;1518;52.408;13.060;2022-08-01T07:30:34;21.70;99.90
3017;DHT22;1518;52.408;13.060;2022-08-01T07:33:22;21.40;99.90
3017;DHT22;1518;52.408;13.060;2022-08-01T07:36:11;21.10;99.90
3017;DHT22;1518;52.408;13.060;2022-08-01T07:38:59;20.70;99.90
3017;DHT22;1518;52.408;13.060;2022-08-01T07:41:47;20.50;99.90
3017;DHT22;1518;52.408;13.060;2022-08-01T07:44:55;20.30;99.90
3017;DHT22;1518;52.408;13.060;2022-08-01T07:47:43;20.40;99.90
3017;DHT22;1518;52.408;13.060;2022-08-01T07:50:32;20.50;99.90
3017;DHT22;1518;52.408;13.060;2022-08-01T07:53:20;20.90;99.90
3017;DHT22;1518;52.408;13.060;2022-08-01T07:56:09;21.20;99.90
3017;DHT22;1518;52.408;13.060;2022-08-01T07:58:57;21.70;99.90
3017;DHT22;1518;52.408;13.060;2022-08-01T08:01:46;21.90;99.90
3017;DHT22;1518;52.408;13.060;2022-08-01T08:04:34;22.00;99.90
3017;DHT22;1518;52.408;13.060;2022-08-01T08:07:22;22.20;99.90
3017;DHT22;1518;52.408;13.060;2022-08-01T08:10:11;22.50;99.90
3017;DHT22;1518;52.408;13.060;2022-08-01T08:12:59;22.40;99.90
3017;DHT22;1518;52.408;13.060;2022-08-01T08:15:48;22.20;99.90
3017;DHT22;1518;52.408;13.060;2022-08-01T08:18:37;22.00;99.90
3017;DHT22;1518;52.408;13.060;2022-08-01T08:21:26;21.70;99.90
3017;DHT22;1518;52.408;13.060;2022-08-01T08:24:15;21.50;99.90
3017;DHT22;1518;52.408;13.060;2022-08-01T08:27:13;21.40;99.90
3017;DHT22;1518;52.408;13.060;2022-08-01T08:30:01;21.50;99.90
3017;DHT22;1518;52.408;13.060;2022-08-01T08:32:49;21.60;99.90
3017;DHT22;1518;52.408;13.060;2022-08-01T08:35:40;21.60;99.90
3017;DHT22;1518;52.408;13.060;2022-08-01T08:38:40;21.70;99.90
3017;DHT22;1518;52.408;13.060;2022-08-01T08:41:29;21.50;99.90
3017;DHT22;1518;52.408;13.060;2022-08-01T08:44:24;21.60;99.90
3017;DHT22;1518;52.408;13.060;2022-08-01T08:47:13;21.60;99.90
3017;DHT22;1518;52.408;13.060;2022-08-01T08:50:07;21.60;99.90
3017;DHT22;1518;52.408;13.060;2022-08-01T08:53:00;21.80;99.90
3017;DHT22;1518;52.408;13.060;2022-08-01T08:55:53;22.00;99.90
3017;DHT22;1518;52.408;13.060;2022-08-01T08:58:44;22.30;99.90
3017;DHT22;1518;52.408;13.060;2022-08-01T09:01:33;22.60;99.90
3017;DHT22;1518;52.408;13.060;2022-08-01T09:04:22;23.00;99.90
3017;DHT22;1518;52.408;13.060;2022-08-01T09:07:12;23.00;99.90
3017;DHT22;1518;52.408;13.060;2022-08-01T09:10:03;22.80;99.90
3017;DHT22;1518;52.408;13.060;2022-08-01T09:13:06;22.60;99.90
3017;DHT22;1518;52.408;13.060;2022-08-01T09:15:57;22.50;99.90
3017;DHT22;1518;52.408;13.060;2022-08-01T09:18:45;22.40;99.90
3017;DHT22;1518;52.408;13.060;2022-08-01T09:21:40;22.30;99.90
3017;DHT22;1518;52.408;13.060;2022-08-01T09:24:58;22.30;99.90
3017;DHT22;1518;52.408;13.060;2022-08-01T09:27:48;22.20;99.90
3017;DHT22;1518;52.408;13.060;2022-08-01T09:30:49;22.30;99.90
3017;DHT22;1518;52.408;13.060;2022-08-01T09:33:48;22.50;99.90
3017;DHT22;1518;52.408;13.060;2022-08-01T09:36:46;23.10;99.90
3017;DHT22;1518;52.408;13.060;2022-08-01T09:39:40;23.50;99.90
3017;DHT22;1518;52.408;13.060;2022-08-01T09:42:30;23.90;99.90
3017;DHT22;1518;52.408;13.060;2022-08-01T09:45:35;24.10;99.90
3017;DHT22;1518;52.408;13.060;2022-08-01T09:48:29;24.20;99.90
3017;DHT22;1518;52.408;13.060;2022-08-01T09:51:28;24.20;99.90
3017;DHT22;1518;52.408;13.060;2022-08-01T09:54:37;24.20;99.90
3017;DHT22;1518;52.408;13.060;2022-08-01T09:57:26;24.40;99.90
3017;DHT22;1518;52.408;13.060;2022-08-01T10:00:17;24.40;99.90
3017;DHT22;1518;52.408;13.060;2022-08-01T10:03:27;24.20;99.90
3017;DHT22;1518;52.408;13.060;2022-08-01T10:06:19;23.90;99.90
3017;DHT22;1518;52.408;13.060;2022-08-01T10:09:12;23.60;99.90
3017;DHT22;1518;52.408;13.060;2022-08-01T10:12:01;23.00;99.90
3017;DHT22;1518;52.408;13.060;2022-08-01T10:14:50;23.00;99.90
3017;DHT22;1518;52.408;13.060;2022-08-01T10:17:39;22.90;99.90
3017;DHT22;1518;52.408;13.060;2022-08-01T10:20:38;23.10;99.90
3017;DHT22;1518;52.408;13.060;2022-08-01T10:23:29;23.30;99.90
3017;DHT22;1518;52.408;13.060;2022-08-01T10:26:26;23.60;99.90
3017;DHT22;1518;52.408;13.060;2022-08-01T10:29:18;23.60;99.90
3017;DHT22;1518;52.408;13.060;2022-08-01T10:32:27;23.90;99.90
3017;DHT22;1518;52.408;13.060;2022-08-01T10:35:16;24.00;99.90
3017;DHT22;1518;52.408;13.060;2022-08-01T10:38:27;24.20;99.90
3017;DHT22;1518;52.408;13.060;2022-08-01T10:41:18;24.30;99.90
3017;DHT22;1518;52.408;13.060;2022-08-01T10:44:08;23.80;99.90
3017;DHT22;1518;52.408;13.060;2022-08-01T10:47:01;23.50;99.90
3017;DHT22;1518;52.408;13.060;2022-08-01T10:50:00;23.20;99.90
3017;DHT22;1518;52.408;13.060;2022-08-01T10:53:10;23.00;99.90
3017;DHT22;1518;52.408;13.060;2022-08-01T10:56:05;22.70;99.90
3017;DHT22;1518;52.408;13.060;2022-08-01T10:59:02;22.70;99.90
3017;DHT22;1518;52.408;13.060;2022-08-01T11:01:57;22.70;99.90
3017;DHT22;1518;52.408;13.060;2022-08-01T11:04:54;22.60;99.90
3017;DHT22;1518;52.408;13.060;2022-08-01T11:07:47;22.50;99.90
3017;DHT22;1518;52.408;13.060;2022-08-01T11:10:37;22.30;99.90
3017;DHT22;1518;52.408;13.060;2022-08-01T11:16:49;22.10;99.90
3017;DHT22;1518;52.408;13.060;2022-08-01T11:20:03;22.20;99.90
3017;DHT22;1518;52.408;13.060;2022-08-01T11:23:24;22.60;99.90
3017;DHT22;1518;52.408;13.060;2022-08-01T11:26:15;23.00;99.90
3017;DHT22;1518;52.408;13.060;2022-08-01T11:29:17;23.60;99.90
3017;DHT22;1518;52.408;13.060;2022-08-01T11:32:25;24.10;99.90
3017;DHT22;1518;52.408;13.060;2022-08-01T11:35:13;24.50;99.90
3017;DHT22;1518;52.408;13.060;2022-08-01T11:38:23;24.70;99.90
3017;DHT22;1518;52.408;13.060;2022-08-01T11:41:16;24.40;99.90
3017;DHT22;1518;52.408;13.060;2022-08-01T11:44:24;24.30;99.90
3017;DHT22;1518;52.408;13.060;2022-08-01T11:47:17;24.30;99.90
3017;DHT22;1518;52.408;13.060;2022-08-01T11:50:31;24.20;99.90
3017;DHT22;1518;52.408;13.060;2022-08-01T11:53:20;24.20;99.90
3017;DHT22;1518;52.408;13.060;2022-08-01T11:56:12;24.40;99.90
3017;DHT22;1518;52.408;13.060;2022-08-01T11:59:03;25.10;99.90
3017;DHT22;1518;52.408;13.060;2022-08-01T12:02:01;25.30;99.90
3017;DHT22;1518;52.408;13.060;2022-08-01T12:04:55;25.80;99.90
3017;DHT22;1518;52.408;13.060;2022-08-01T12:07:50;25.90;99.90
3017;DHT22;1518;52.408;13.060;2022-08-01T12:10:38;26.10;99.90
3017;DHT22;1518;52.408;13.060;2022-08-01T12:13:40;26.10;99.90
3017;DHT22;1518;52.408;13.060;2022-08-01T12:16:28;26.10;99.90
3017;DHT22;1518;52.408;13.060;2022-08-01T12:19:20;26.20;99.90
3017;DHT22;1518;52.408;13.060;2022-08-01T12:22:11;26.40;99.90
3017;DHT22;1518;52.408;13.060;2022-08-01T12:25:07;26.40;99.90
3017;DHT22;1518;52.408;13.060;2022-08-01T12:28:00;26.60;99.90
3017;DHT22;1518;52.408;13.060;2022-08-01T12:30:49;26.70;99.90
3017;DHT22;1518;52.408;13.060;2022-08-01T12:33:37;26.50;99.90
3017;DHT22;1518;52.408;13.060;2022-08-01T12:36:27;26.20;99.90
3017;DHT22;1518;52.408;13.060;2022-08-01T12:39:16;25.90;99.90
3017;DHT22;1518;52.408;13.060;2022-08-01T12:42:07;25.50;99.90
3017;DHT22;1518;52.408;13.060;2022-08-01T12:44:57;25.30;99.90
3017;DHT22;1518;52.408;13.060;2022-08-01T12:47:46;25.20;99.90
3017;DHT22;1518;52.408;13.060;2022-08-01T12:50:37;25.30;99.90
3017;DHT22;1518;52.408;13.060;2022-08-01T12:53:26;25.70;99.90
3017;DHT22;1518;52.408;13.060;2022-08-01T12:56:31;25.90;99.90
3017;DHT22;1518;52.408;13.060;2022-08-01T12:59:22;26.40;99.90
3017;DHT22;1518;52.408;13.060;2022-08-01T13:02:12;26.50;99.90
3017;DHT22;1518;52.408;13.060;2022-08-01T13:05:00;26.80;99.90
3017;DHT22;1518;52.408;13.060;2022-08-01T13:07:49;27.10;99.90
3017;DHT22;1518;52.408;13.060;2022-08-01T13:10:38;26.70;99.90
3017;DHT22;1518;52.408;13.060;2022-08-01T13:13:37;26.30;99.90
3017;DHT22;1518;52.408;13.060;2022-08-01T13:16:27;26.40;99.90
3017;DHT22;1518;52.408;13.060;2022-08-01T13:19:43;26.60;99.90
3017;DHT22;1518;52.408;13.060;2022-08-01T13:22:32;26.50;99.90
3017;DHT22;1518;52.408;13.060;2022-08-01T13:25:20;26.20;99.90
3017;DHT22;1518;52.408;13.060;2022-08-01T13:28:15;26.10;99.90
3017;DHT22;1518;52.408;13.060;2022-08-01T13:31:05;26.30;99.90
3017;DHT22;1518;52.408;13.060;2022-08-01T13:33:55;27.30;99.90
3017;DHT22;1518;52.408;13.060;2022-08-01T13:36:46;28.40;99.90
3017;DHT22;1518;52.408;13.060;2022-08-01T13:39:35;29.00;99.90
3017;DHT22;1518;52.408;13.060;2022-08-01T13:42:30;29.70;99.90
3017;DHT22;1518;52.408;13.060;2022-08-01T13:45:19;30.20;99.90
3017;DHT22;1518;52.408;13.060;2022-08-01T13:48:08;29.70;99.90
3017;DHT22;1518;52.408;13.060;2022-08-01T13:51:06;29.00;99.90
3017;DHT22;1518;52.408;13.060;2022-08-01T13:54:08;28.60;99.90
3017;DHT22;1518;52.408;13.060;2022-08-01T13:56:56;28.40;99.90
3017;DHT22;1518;52.408;13.060;2022-08-01T13:59:44;28.30;99.90
3017;DHT22;1518;52.408;13.060;2022-08-01T14:02:32;28.20;99.90
3017;DHT22;1518;52.408;13.060;2022-08-01T14:05:21;28.20;99.90
3017;DHT22;1518;52.408;13.060;2022-08-01T14:08:10;28.60;99.90
3017;DHT22;1518;52.408;13.060;2022-08-01T14:11:00;28.40;99.90
3017;DHT22;1518;52.408;13.060;2022-08-01T14:13:53;28.00;99.90
3017;DHT22;1518;52.408;13.060;2022-08-01T14:16:42;27.40;99.90
3017;DHT22;1518;52.408;13.060;2022-08-01T14:19:31;27.10;99.90
3017;DHT22;1518;52.408;13.060;2022-08-01T14:22:25;27.50;99.90
3017;DHT22;1518;52.408;13.060;2022-08-01T14:25:15;27.60;99.90
3017;DHT22;1518;52.408;13.060;2022-08-01T14:28:25;27.20;99.90
3017;DHT22;1518;52.408;13.060;2022-08-01T14:31:15;26.70;99.90
3017;DHT22;1518;52.408;13.060;2022-08-01T14:34:03;26.80;99.90
3017;DHT22;1518;52.408;13.060;2022-08-01T14:36:51;27.00;99.90
3017;DHT22;1518;52.408;13.060;2022-08-01T14:39:43;27.50;99.90
3017;DHT22;1518;52.408;13.060;2022-08-01T14:42:41;27.80;99.90
3017;DHT22;1518;52.408;13.060;2022-08-01T14:45:30;27.90;99.90
3017;DHT22;1518;52.408;13.060;2022-08-01T14:48:19;27.80;99.90
3017;DHT22;1518;52.408;13.060;2022-08-01T14:51:08;27.90;99.90
3017;DHT22;1518;52.408;13.060;2022-08-01T14:53:56;29.10;99.90
3017;DHT22;1518;52.408;13.060;2022-08-01T14:56:45;31.00;99.90
3017;DHT22;1518;52.408;13.060;2022-08-01T14:59:35;31.70;97.60
3017;DHT22;1518;52.408;13.060;2022-08-01T15:02:23;31.80;97.30
3017;DHT22;1518;52.408;13.060;2022-08-01T15:05:12;32.00;96.70
3017;DHT22;1518;52.408;13.060;2022-08-01T15:08:00;32.60;95.10
3017;DHT22;1518;52.408;13.060;2022-08-01T15:10:48;32.60;93.90
3017;DHT22;1518;52.408;13.060;2022-08-01T15:13:36;32.50;94.00
3017;DHT22;1518;52.408;13.060;2022-08-01T15:16:30;33.30;93.20
3017;DHT22;1518;52.408;13.060;2022-08-01T15:19:18;33.20;92.60
3017;DHT22;1518;52.408;13.060;2022-08-01T15:22:06;33.00;91.90
3017;DHT22;1518;52.408;13.060;2022-08-01T15:24:55;32.90;92.00
3017;DHT22;1518;52.408;13.060;2022-08-01T15:27:44;32.50;91.60
3017;DHT22;1518;52.408;13.060;2022-08-01T15:30:32;33.10;90.10
3017;DHT22;1518;52.408;13.060;2022-08-01T15:33:22;32.50;86.70
3017;DHT22;1518;52.408;13.060;2022-08-01T15:36:11;31.70;87.80
3017;DHT22;1518;52.408;13.060;2022-08-01T15:39:01;30.80;90.20
3017;DHT22;1518;52.408;13.060;2022-08-01T15:41:50;30.40;90.00
3017;DHT22;1518;52.408;13.060;2022-08-01T15:44:38;30.20;90.40
3017;DHT22;1518;52.408;13.060;2022-08-01T15:47:26;30.30;90.10
3017;DHT22;1518;52.408;13.060;2022-08-01T15:50:15;30.30;90.20
3017;DHT22;1518;52.408;13.060;2022-08-01T15:53:04;30.40;89.40
3017;DHT22;1518;52.408;13.060;2022-08-01T15:55:52;30.10;88.80
3017;DHT22;1518;52.408;13.060;2022-08-01T15:58:40;30.20;89.20
3017;DHT22;1518;52.408;13.060;2022-08-01T16:01:29;29.90;89.00
3017;DHT22;1518;52.408;13.060;2022-08-01T16:04:17;29.70;90.00
3017;DHT22;1518;52.408;13.060;2022-08-01T16:07:14;29.30;89.50
3017;DHT22;1518;52.408;13.060;2022-08-01T16:10:03;28.80;90.40
3017;DHT22;1518;52.408;13.060;2022-08-01T16:12:51;27.90;91.30
3017;DHT22;1518;52.408;13.060;2022-08-01T16:15:39;27.20;92.90
3017;DHT22;1518;52.408;13.060;2022-08-01T16:18:28;26.90;94.50
3017;DHT22;1518;52.408;13.060;2022-08-01T16:21:16;27.60;96.90
3017;DHT22;1518;52.408;13.060;2022-08-01T16:24:06;27.60;97.10
3017;DHT22;1518;52.408;13.060;2022-08-01T16:26:54;28.60;96.10
3017;DHT22;1518;52.408;13.060;2022-08-01T16:29:42;29.80;95.40
3017;DHT22;1518;52.408;13.060;2022-08-01T16:32:30;31.80;93.40
3017;DHT22;1518;52.408;13.060;2022-08-01T16:35:38;33.70;91.00
3017;DHT22;1518;52.408;13.060;2022-08-01T16:38:32;34.20;87.40
3017;DHT22;1518;52.408;13.060;2022-08-01T16:41:22;33.90;86.00
3017;DHT22;1518;52.408;13.060;2022-08-01T16:44:10;33.40;86.50
3017;DHT22;1518;52.408;13.060;2022-08-01T16:46:58;33.00;86.20
3017;DHT22;1518;52.408;13.060;2022-08-01T16:49:46;32.10;88.10
3017;DHT22;1518;52.408;13.060;2022-08-01T16:52:35;30.90;89.40
3017;DHT22;1518;52.408;13.060;2022-08-01T16:55:28;29.70;91.00
3017;DHT22;1518;52.408;13.060;2022-08-01T16:58:37;28.80;92.20
3017;DHT22;1518;52.408;13.060;2022-08-01T17:01:25;28.10;93.60
3017;DHT22;1518;52.408;13.060;2022-08-01T17:04:34;27.40;94.70
3017;DHT22;1518;52.408;13.060;2022-08-01T17:07:22;27.00;95.30
3017;DHT22;1518;52.408;13.060;2022-08-01T17:10:10;26.70;96.00
3017;DHT22;1518;52.408;13.060;2022-08-01T17:13:00;26.70;96.30
3017;DHT22;1518;52.408;13.060;2022-08-01T17:15:49;26.60;96.40
3017;DHT22;1518;52.408;13.060;2022-08-01T17:18:39;26.60;96.60
3017;DHT22;1518;52.408;13.060;2022-08-01T17:21:27;26.10;97.40
3017;DHT22;1518;52.408;13.060;2022-08-01T17:24:15;26.00;97.60
3017;DHT22;1518;52.408;13.060;2022-08-01T17:27:03;25.90;97.80
3017;DHT22;1518;52.408;13.060;2022-08-01T17:29:58;25.80;98.20
3017;DHT22;1518;52.408;13.060;2022-08-01T17:32:48;25.70;98.30
3017;DHT22;1518;52.408;13.060;2022-08-01T17:35:36;25.60;98.80
3017;DHT22;1518;52.408;13.060;2022-08-01T17:38:24;25.40;99.20
3017;DHT22;1518;52.408;13.060;2022-08-01T17:41:12;25.40;99.50
3017;DHT22;1518;52.408;13.060;2022-08-01T17:44:01;25.30;99.70
3017;DHT22;1518;52.408;13.060;2022-08-01T17:46:49;25.20;99.90
3017;DHT22;1518;52.408;13.060;2022-08-01T17:49:38;25.10;99.90
3017;DHT22;1518;52.408;13.060;2022-08-01T17:52:42;25.20;99.90
3017;DHT22;1518;52.408;13.060;2022-08-01T17:55:31;25.50;99.90
3017;DHT22;1518;52.408;13.060;2022-08-01T17:58:40;26.30;99.40
3017;DHT22;1518;52.408;13.060;2022-08-01T18:01:38;26.20;99.00
3017;DHT22;1518;52.408;13.060;2022-08-01T18:04:31;26.10;98.90
3017;DHT22;1518;52.408;13.060;2022-08-01T18:07:24;25.80;99.30
3017;DHT22;1518;52.408;13.060;2022-08-01T18:10:33;25.60;99.80
3017;DHT22;1518;52.408;13.060;2022-08-01T18:13:26;25.50;99.90
3017;DHT22;1518;52.408;13.060;2022-08-01T18:16:15;25.40;99.90
3017;DHT22;1518;52.408;13.060;2022-08-01T18:19:04;25.30;99.80
3017;DHT22;1518;52.408;13.060;2022-08-01T18:21:52;25.10;99.90
3017;DHT22;1518;52.408;13.060;2022-08-01T18:24:42;25.00;99.90